Rankings de siempre
Mejores tiempos personales válidos de equipo a través de todos los eventos y temporadas. Cada equipo aparece una vez por división.
Busca por nombre y abre la página donde está clasificado este récord de división.
23,833 equipos clasificados
| Pos. | Pos. AG | Equipo | Nacionalidad | Categoría de edad | TiempoMejor tiempo | Diferencia |
|---|---|---|---|---|---|---|
| 20501 | #8182 | Alessandro Venturelli & Simone ChiariniITA · M 30-34 · AG #8182 | ITA | M 30-34 | 1:24:20 | +35:49 |
| 20502 | #8183 | 鑫磊 任 & 晨 李CHN · M 30-34 · AG #8183 | CHN | M 30-34 | 1:24:20 | +35:49 |
| 20503 | #8184 | 振杰 李 & 恩达来 苏CHN · M 30-34 · AG #8184 | CHN | M 30-34 | 1:24:20 | +35:49 |
| 20504 | #7 | Hon Yuen Frankie CHAN & Daniel Chi Hung MaHKG · M 60-64 · AG #7 | HKG | M 60-64 | 1:24:21 | +35:50 |
| 20505 | #3243 | Owayyed Jamal & Mohamed Amine LabriM 25-29 · AG #3243 | -- | M 25-29 | 1:24:22 | +35:51 |
| 20506 | #1207 | Antoni Inak & Joel HarrisGBR · M 16-24 · AG #1207 | GBR | M 16-24 | 1:24:22 | +35:51 |
| 20507 | #2410 | Salvador Escarpulli & José De Jesús Joya GonzálezMEX · M 40-44 · AG #2410 | MEX | M 40-44 | 1:24:22 | +35:51 |
| 20508 | #3244 | Bie Meester & Robin Van TwillertNED · M 25-29 · AG #3244 | NED | M 25-29 | 1:24:22 | +35:51 |
| 20509 | -- | Liam Allison & Alan LawsonGBR · M MU29 | GBR | M MU29 | 1:24:22 | +35:51 |
| 20510 | #8185 | 赵睿旺 肖 & 德祥 李CHN · M 30-34 · AG #8185 | CHN | M 30-34 | 1:24:22 | +35:51 |
| 20511 | #3245 | Noah Pease & Jake CooperUSA · M 25-29 · AG #3245 | USA | M 25-29 | 1:24:23 | +35:52 |
| 20512 | #2411 | Paul Jones & Harrry MuchmoreAUS · M 40-44 · AG #2411 | AUS | M 40-44 | 1:24:23 | +35:52 |
| 20513 | #8187 | Leon Chen & Han Bin Lewis SohSIN · M 30-34 · AG #8187 | SIN | M 30-34 | 1:24:23 | +35:52 |
| 20514 | #8188 | François Dewez & Nicolas DegroideBEL · M 30-34 · AG #8188 | BEL | M 30-34 | 1:24:23 | +35:52 |
| 20515 | #8189 | Luke Robinson & Ben DavisGBR · M 30-34 · AG #8189 | GBR | M 30-34 | 1:24:23 | +35:52 |
| 20516 | #8186 | Matt Calabretta & Gabriel PaganM 30-34 · AG #8186 | -- | M 30-34 | 1:24:23 | +35:52 |
| 20517 | #3081 | Alfredo Rodríguez Falconi & Jezreel Isachar Pérez TorresMEX · M 35-39 · AG #3081 | MEX | M 35-39 | 1:24:24 | +35:53 |
| 20518 | #8190 | Adam Holmgren & Edvard TorkelssonSWE · M 30-34 · AG #8190 | SWE | M 30-34 | 1:24:24 | +35:53 |
| 20519 | #8191 | Eddie Smith & Dion WilliamsUSA · M 30-34 · AG #8191 | USA | M 30-34 | 1:24:24 | +35:53 |
| 20520 | #8192 | Oliver Bennett & Ryan ImmGBR · M 30-34 · AG #8192 | GBR | M 30-34 | 1:24:24 | +35:53 |
| 20521 | #3082 | Felix Morgenstern & Florian BischoffGER · M 35-39 · AG #3082 | GER | M 35-39 | 1:24:25 | +35:54 |
| 20522 | #3246 | Mark Bloom & Matt CancianUSA · M 25-29 · AG #3246 | USA | M 25-29 | 1:24:25 | +35:54 |
| 20523 | #3247 | Khoa Bui & Aaron LarivaUSA · M 25-29 · AG #3247 | USA | M 25-29 | 1:24:25 | +35:54 |
| 20524 | #3083 | Patrick Shen & Jianpeng HuangCHN · M 35-39 · AG #3083 | CHN | M 35-39 | 1:24:25 | +35:54 |
| 20525 | -- | Hugh Boyd-Lambley & Frank CookGBR · M MU29 | GBR | M MU29 | 1:24:25 | +35:54 |
Página 821 de 954